»·PEaware :: N9944M KCNO-KCNO

N9944M :: KCNO-KCNO

FLIGHT INFORMATION

Flight Status: Arrived
Operator: Privately registered:
United States
More flights under this callsign
Pilot: Adam C. (21)
Aircraft: MITSUBISHI F-86 SABRE
(F86)
More flights by this aircraft type
Origin: KCNO Chino
United States
Destination: KCNO Chino
United States
More flights between these airports :: More routes between these airports
Route: +PATTERN
File this flight plan on PilotEdge
Remarks:
Altitude:
(Current/Filed)
0ft
Speed:
(Current/Filed)
0kts
Departed: 27-Jul-11 07:56 PM
Arrived: 27-Jul-11 08:42 PM
Distance/Time
Traveled:
0nm/0:46
Distance/Time
To Go:
Arrived

Flight Plot

Page will automatically refresh every two minutes.


Map Options




Map Legend


Flown Route
Filed Route
Departure Airport
Arrival Airport
Navaid (VOR, NDB)
Fix

Horizontal Profiles

Position Reports

Time Latitude Longitude Heading Altitude Ground
Speed
27-Jul-11 19:46 33.982296 -117.639848 194 655ft 5kts
27-Jul-11 19:47 33.979241 -117.639220 179 655ft 18kts
27-Jul-11 19:48 33.976995 -117.637641 93 655ft 17kts
27-Jul-11 19:49 33.976932 -117.635742 90 655ft 0kts
27-Jul-11 19:50 33.976945 -117.631504 90 655ft 9kts
27-Jul-11 19:51 33.976942 -117.631410 91 655ft 0kts
27-Jul-11 19:52 33.976644 -117.630900 168 655ft 11kts
27-Jul-11 19:53 33.975975 -117.656761 265 978ft 172kts
27-Jul-11 19:54 33.949372 -117.645793 91 1557ft 209kts
27-Jul-11 19:55 33.954742 -117.577541 75 1497ft 198kts
27-Jul-11 19:56 33.973289 -117.589273 272 1125ft 153kts
27-Jul-11 19:57 33.973498 -117.639475 269 680ft 192kts
27-Jul-11 19:58 33.942537 -117.654393 83 2184ft 161kts
27-Jul-11 19:59 33.956665 -117.587145 73 1635ft 217kts
27-Jul-11 20:00 33.973681 -117.593884 268 894ft 157kts
27-Jul-11 20:01 33.973525 -117.645308 268 873ft 190kts
27-Jul-11 20:02 33.934992 -117.663945 105 2303ft 174kts
27-Jul-11 20:03 33.931286 -117.600805 86 2040ft 195kts
27-Jul-11 20:04 33.960978 -117.564120 0 1770ft 163kts
27-Jul-11 20:05 33.973868 -117.605293 267 861ft 142kts
27-Jul-11 20:06 33.972890 -117.659439 263 1413ft 231kts
27-Jul-11 20:07 33.930144 -117.650963 87 2054ft 211kts
27-Jul-11 20:08 33.937324 -117.589016 77 2104ft 226kts
27-Jul-11 20:09 33.968972 -117.567798 293 1721ft 168kts
27-Jul-11 20:10 33.973812 -117.617350 268 718ft 145kts
27-Jul-11 20:11 33.972310 -117.676723 233 2366ft 210kts
27-Jul-11 20:12 33.932271 -117.653413 91 2057ft 239kts
27-Jul-11 20:13 33.934404 -117.575564 82 2119ft 226kts
27-Jul-11 20:14 33.967121 -117.550717 300 2139ft 165kts
27-Jul-11 20:15 33.973753 -117.603221 269 923ft 144kts
27-Jul-11 20:16 33.973210 -117.654096 268 1205ft 218kts
27-Jul-11 20:17 33.932072 -117.649706 98 2243ft 200kts
27-Jul-11 20:19 33.966023 -117.562232 306 1843ft 172kts
27-Jul-11 20:20 33.973810 -117.613320 268 766ft 152kts
27-Jul-11 20:21 33.968955 -117.666475 183 2262ft 177kts
27-Jul-11 20:22 33.932600 -117.640664 83 1773ft 216kts
27-Jul-11 20:23 33.943957 -117.566397 37 2135ft 199kts
27-Jul-11 20:24 33.973778 -117.593288 273 964ft 143kts
27-Jul-11 20:25 33.973608 -117.636257 268 655ft 123kts
27-Jul-11 20:26 33.945863 -117.665274 179 2143ft 195kts
27-Jul-11 20:27 33.915548 -117.622742 93 2084ft 250kts
27-Jul-11 20:28 33.918027 -117.544205 62 2013ft 221kts
27-Jul-11 20:29 33.962739 -117.539155 305 1957ft 156kts
27-Jul-11 20:30 33.973914 -117.591164 271 877ft 145kts
27-Jul-11 20:31 33.973600 -117.635755 268 655ft 141kts
27-Jul-11 20:32 33.947155 -117.677068 187 2338ft 195kts
27-Jul-11 20:33 33.928465 -117.620536 94 1424ft 235kts
27-Jul-11 20:34 33.975060 -117.434390 268 2511ft 174kts
27-Jul-11 20:35 33.974009 -117.497786 268 2188ft 181kts
27-Jul-11 20:36 33.974601 -117.552745 275 1754ft 155kts
27-Jul-11 20:37 33.976047 -117.603599 270 1033ft 140kts
27-Jul-11 20:38 33.975737 -117.642528 268 655ft 67kts
27-Jul-11 20:39 33.976806 -117.645898 87 655ft 0kts
27-Jul-11 20:40 33.979551 -117.645195 351 655ft 8kts
27-Jul-11 20:41 33.980722 -117.641662 69 655ft 18kts
27-Jul-11 20:42 33.982048 -117.639890 7 655ft 5kts
27-Jul-11 20:43 33.982216 -117.639601 96 655ft 0kts
27-Jul-11 20:44 33.982216 -117.639601 96 655ft 0kts
27-Jul-11 20:45 33.982216 -117.639601 96 655ft 0kts
27-Jul-11 20:46 33.982216 -117.639601 96 655ft 0kts
27-Jul-11 20:47 33.982216 -117.639601 96 655ft 0kts
27-Jul-11 20:48 33.982216 -117.639601 96 655ft 0kts
27-Jul-11 20:49 33.982216 -117.639601 96 655ft 0kts
27-Jul-11 20:50 33.981670 -117.639682 128 655ft 0kts
27-Jul-11 20:51 33.978046 -117.639218 179 655ft 22kts
27-Jul-11 20:52 33.976914 -117.636043 89 655ft 0kts
27-Jul-11 20:53 33.976899 -117.631075 97 655ft 3kts
27-Jul-11 20:54 33.976591 -117.630528 171 655ft 8kts

Navigation Log

Ident Type
Flight plan parsing failed, navigation log unavailable